Port Bolivar, Texas
Current Conditions -  °F | °C
As of 6:32 PM on Thursday 18 Dec 2014 (Local Time) from KGLS Reporting Station
Haze Haze  
Wind Chill: 64°   Ceiling: 300
Heat Index: 64°   Visibility: 4mi
Dew Point: 64°   Wind: 12mph
Humidity: 100%   Direction: 60°ENE
Pressure: 30.05"   Gusts: NA
Location:  29.38°N, 94.77°W
Report Text: KGLS 190032Z AUTO 06010KT 4SM BR OVC003 18/18 A3005 RMK AO1 T01780178
Loading
Personal Weather Stations






























Interactive Weather Map New forecast layout! Learn more

10-Day Weather Forecast

Advertisements
Track Severe Weather on mobile